METAR Data
IDs: Format: Raw Decoded Include TAF

Data at: 1233 UTC 23 Mar 2019

METAR for:KHLX (Hillsville/Twin Cnty, VA, US)
Text:KHLX 231215Z AUTO 30009KT 10SM CLR 00/M06 A3012 RMK AO2 T00001063
Temperature: 0.0°C ( 32°F)
Dewpoint: -6.3°C ( 21°F) [RH = 62%]
Pressure (altimeter):30.12 inches Hg (1020.1 mb)
Winds:from the WNW (300 degrees) at 10 MPH (9 knots; 4.6 m/s)
Visibility:10 or more sm (16+ km)
Ceiling:at least 12,000 feet AGL
Clouds:sky clear below 12,000 feet AGL
QC Flag:automated observation with no human augmentation